sensor_id;sensor_type;location;lat;lon;timestamp;pressure;altitude;pressure_sealevel;temperature
73894;BMP280;62699;50.534;12.784;2022-08-21T00:04:50;96483.47;;;17.10
73894;BMP280;62699;50.534;12.784;2022-08-21T00:10:11;96488.97;;;17.18
73894;BMP280;62699;50.534;12.784;2022-08-21T00:15:36;96487.50;;;17.17
73894;BMP280;62699;50.534;12.784;2022-08-21T00:20:55;96484.06;;;17.16
73894;BMP280;62699;50.534;12.784;2022-08-21T00:26:16;96485.91;;;17.21
73894;BMP280;62699;50.534;12.784;2022-08-21T00:31:49;96489.16;;;17.20
73894;BMP280;62699;50.534;12.784;2022-08-21T00:37:08;96482.44;;;17.21
73894;BMP280;62699;50.534;12.784;2022-08-21T00:42:29;96475.47;;;17.05
73894;BMP280;62699;50.534;12.784;2022-08-21T00:53:55;96475.94;;;17.24
73894;BMP280;62699;50.534;12.784;2022-08-21T00:59:18;96473.28;;;17.03
73894;BMP280;62699;50.534;12.784;2022-08-21T01:04:38;96476.09;;;17.18
73894;BMP280;62699;50.534;12.784;2022-08-21T01:09:58;96467.38;;;17.20
73894;BMP280;62699;50.534;12.784;2022-08-21T01:15:18;96475.94;;;17.24
73894;BMP280;62699;50.534;12.784;2022-08-21T01:21:17;96466.88;;;17.29
73894;BMP280;62699;50.534;12.784;2022-08-21T01:26:37;96469.78;;;17.23
73894;BMP280;62699;50.534;12.784;2022-08-21T01:31:58;96464.66;;;17.20
73894;BMP280;62699;50.534;12.784;2022-08-21T01:37:19;96469.25;;;17.25
73894;BMP280;62699;50.534;12.784;2022-08-21T01:42:40;96469.00;;;17.15
73894;BMP280;62699;50.534;12.784;2022-08-21T01:47:59;96472.66;;;17.18
73894;BMP280;62699;50.534;12.784;2022-08-21T01:53:18;96467.94;;;17.18
73894;BMP280;62699;50.534;12.784;2022-08-21T01:58:39;96471.84;;;17.10
73894;BMP280;62699;50.534;12.784;2022-08-21T02:03:58;96467.19;;;17.18
73894;BMP280;62699;50.534;12.784;2022-08-21T02:09:18;96465.03;;;17.16
73894;BMP280;62699;50.534;12.784;2022-08-21T02:14:38;96456.97;;;17.03
73894;BMP280;62699;50.534;12.784;2022-08-21T02:20:05;96467.84;;;17.03
73894;BMP280;62699;50.534;12.784;2022-08-21T02:25:26;96447.00;;;17.06
73894;BMP280;62699;50.534;12.784;2022-08-21T02:30:47;96457.34;;;17.07
73894;BMP280;62699;50.534;12.784;2022-08-21T02:36:09;96448.50;;;17.14
73894;BMP280;62699;50.534;12.784;2022-08-21T02:41:29;96449.06;;;17.20
73894;BMP280;62699;50.534;12.784;2022-08-21T02:46:49;96446.75;;;17.24
73894;BMP280;62699;50.534;12.784;2022-08-21T02:52:07;96453.81;;;17.27
73894;BMP280;62699;50.534;12.784;2022-08-21T02:57:28;96455.25;;;17.21
73894;BMP280;62699;50.534;12.784;2022-08-21T03:02:48;96449.47;;;17.24
73894;BMP280;62699;50.534;12.784;2022-08-21T03:08:12;96449.28;;;17.30
73894;BMP280;62699;50.534;12.784;2022-08-21T03:13:32;96449.13;;;17.28
73894;BMP280;62699;50.534;12.784;2022-08-21T03:18:52;96446.97;;;17.34
73894;BMP280;62699;50.534;12.784;2022-08-21T03:24:11;96452.97;;;17.40
73894;BMP280;62699;50.534;12.784;2022-08-21T03:29:32;96452.97;;;17.40
73894;BMP280;62699;50.534;12.784;2022-08-21T03:34:51;96455.69;;;17.33
73894;BMP280;62699;50.534;12.784;2022-08-21T03:40:20;96461.81;;;17.25
73894;BMP280;62699;50.534;12.784;2022-08-21T03:45:39;96458.94;;;17.31
73894;BMP280;62699;50.534;12.784;2022-08-21T03:51:30;96466.97;;;17.37
73894;BMP280;62699;50.534;12.784;2022-08-21T03:56:51;96467.19;;;17.18
73894;BMP280;62699;50.534;12.784;2022-08-21T04:02:19;96473.09;;;17.01
73894;BMP280;62699;50.534;12.784;2022-08-21T04:07:39;96466.34;;;16.95
73894;BMP280;62699;50.534;12.784;2022-08-21T04:19:21;96475.13;;;17.08
73894;BMP280;62699;50.534;12.784;2022-08-21T04:24:53;96477.00;;;17.21
73894;BMP280;62699;50.534;12.784;2022-08-21T04:30:13;96482.44;;;17.13
73894;BMP280;62699;50.534;12.784;2022-08-21T04:35:34;96493.53;;;17.23
73894;BMP280;62699;50.534;12.784;2022-08-21T04:40:53;96507.78;;;17.08
73894;BMP280;62699;50.534;12.784;2022-08-21T04:46:13;96499.06;;;17.10
73894;BMP280;62699;50.534;12.784;2022-08-21T04:51:34;96494.81;;;17.22
73894;BMP280;62699;50.534;12.784;2022-08-21T04:57:08;96501.72;;;17.30
73894;BMP280;62699;50.534;12.784;2022-08-21T05:02:30;96499.44;;;17.42
73894;BMP280;62699;50.534;12.784;2022-08-21T05:07:59;96506.16;;;17.49
73894;BMP280;62699;50.534;12.784;2022-08-21T05:13:41;96501.16;;;17.60
73894;BMP280;62699;50.534;12.784;2022-08-21T05:19:01;96500.78;;;17.56
73894;BMP280;62699;50.534;12.784;2022-08-21T05:24:20;96501.16;;;17.60
73894;BMP280;62699;50.534;12.784;2022-08-21T05:29:40;96512.25;;;17.62
73894;BMP280;62699;50.534;12.784;2022-08-21T05:35:06;96514.25;;;17.69
73894;BMP280;62699;50.534;12.784;2022-08-21T05:40:26;96509.63;;;17.85
73894;BMP280;62699;50.534;12.784;2022-08-21T05:46:23;96520.47;;;17.77
73894;BMP280;62699;50.534;12.784;2022-08-21T05:51:43;96515.59;;;17.83
73894;BMP280;62699;50.534;12.784;2022-08-21T05:57:01;96518.66;;;17.72
73894;BMP280;62699;50.534;12.784;2022-08-21T06:02:35;96507.41;;;17.83
73894;BMP280;62699;50.534;12.784;2022-08-21T06:07:54;96514.16;;;17.82
73894;BMP280;62699;50.534;12.784;2022-08-21T06:13:15;96508.88;;;17.77
73894;BMP280;62699;50.534;12.784;2022-08-21T06:18:46;96510.28;;;17.78
73894;BMP280;62699;50.534;12.784;2022-08-21T06:24:05;96512.47;;;17.72
73894;BMP280;62699;50.534;12.784;2022-08-21T06:29:35;96509.19;;;17.73
73894;BMP280;62699;50.534;12.784;2022-08-21T06:34:54;96503.88;;;18.19
73894;BMP280;62699;50.534;12.784;2022-08-21T06:40:29;96501.34;;;18.13
73894;BMP280;62699;50.534;12.784;2022-08-21T06:45:49;96501.72;;;18.25
73894;BMP280;62699;50.534;12.784;2022-08-21T06:51:08;96500.66;;;18.28
73894;BMP280;62699;50.534;12.784;2022-08-21T06:56:28;96505.19;;;18.33
73894;BMP280;62699;50.534;12.784;2022-08-21T07:01:47;96508.19;;;17.92
73894;BMP280;62699;50.534;12.784;2022-08-21T07:13:08;96516.25;;;18.20
73894;BMP280;62699;50.534;12.784;2022-08-21T07:19:03;96509.72;;;18.53
73894;BMP280;62699;50.534;12.784;2022-08-21T07:24:22;96506.78;;;19.12
73894;BMP280;62699;50.534;12.784;2022-08-21T07:29:42;96510.13;;;19.58
73894;BMP280;62699;50.534;12.784;2022-08-21T07:35:01;96508.69;;;19.49
73894;BMP280;62699;50.534;12.784;2022-08-21T07:40:21;96509.72;;;19.06
73894;BMP280;62699;50.534;12.784;2022-08-21T07:45:40;96511.97;;;19.40
73894;BMP280;62699;50.534;12.784;2022-08-21T07:51:07;96518.53;;;20.49
73894;BMP280;62699;50.534;12.784;2022-08-21T07:56:27;96517.16;;;20.00
73894;BMP280;62699;50.534;12.784;2022-08-21T08:01:47;96516.81;;;19.64
73894;BMP280;62699;50.534;12.784;2022-08-21T08:07:14;96515.84;;;19.37
73894;BMP280;62699;50.534;12.784;2022-08-21T08:12:54;96520.59;;;19.14
73894;BMP280;62699;50.534;12.784;2022-08-21T08:18:27;96529.34;;;19.12
73894;BMP280;62699;50.534;12.784;2022-08-21T08:29:59;96524.63;;;20.08
73894;BMP280;62699;50.534;12.784;2022-08-21T08:35:33;96528.16;;;20.75
73894;BMP280;62699;50.534;12.784;2022-08-21T08:41:14;96523.28;;;22.68
73894;BMP280;62699;50.534;12.784;2022-08-21T08:46:42;96523.34;;;22.32
73894;BMP280;62699;50.534;12.784;2022-08-21T08:52:06;96525.81;;;21.57
73894;BMP280;62699;50.534;12.784;2022-08-21T08:57:30;96542.97;;;20.89
73894;BMP280;62699;50.534;12.784;2022-08-21T09:09:04;96533.31;;;20.88
73894;BMP280;62699;50.534;12.784;2022-08-21T09:21:47;96516.75;;;23.69
73894;BMP280;62699;50.534;12.784;2022-08-21T09:27:11;96516.34;;;23.24
73894;BMP280;62699;50.534;12.784;2022-08-21T09:32:34;96509.66;;;22.51
73894;BMP280;62699;50.534;12.784;2022-08-21T09:37:59;96514.06;;;22.92
73894;BMP280;62699;50.534;12.784;2022-08-21T09:43:38;96516.50;;;22.88
73894;BMP280;62699;50.534;12.784;2022-08-21T09:48:59;96505.16;;;23.80
73894;BMP280;62699;50.534;12.784;2022-08-21T09:54:27;96504.78;;;22.49
73894;BMP280;62699;50.534;12.784;2022-08-21T09:59:47;96506.50;;;21.82
73894;BMP280;62699;50.534;12.784;2022-08-21T10:05:21;96509.53;;;22.03
73894;BMP280;62699;50.534;12.784;2022-08-21T10:10:41;96503.81;;;23.02
73894;BMP280;62699;50.534;12.784;2022-08-21T10:27:57;96501.34;;;22.97
73894;BMP280;62699;50.534;12.784;2022-08-21T10:39:13;96497.06;;;25.18
73894;BMP280;62699;50.534;12.784;2022-08-21T10:44:55;96501.75;;;24.00
73894;BMP280;62699;50.534;12.784;2022-08-21T10:50:58;96502.25;;;24.39
73894;BMP280;62699;50.534;12.784;2022-08-21T10:56:31;96498.19;;;25.25
73894;BMP280;62699;50.534;12.784;2022-08-21T11:07:21;96490.31;;;24.35
73894;BMP280;62699;50.534;12.784;2022-08-21T11:12:54;96494.94;;;24.96
73894;BMP280;62699;50.534;12.784;2022-08-21T11:18:40;96485.09;;;26.90
73894;BMP280;62699;50.534;12.784;2022-08-21T11:29:37;96481.72;;;24.83
73894;BMP280;62699;50.534;12.784;2022-08-21T12:02:45;96471.78;;;25.22
73894;BMP280;62699;50.534;12.784;2022-08-21T12:08:14;96480.50;;;25.63
73894;BMP280;62699;50.534;12.784;2022-08-21T12:13:38;96477.91;;;24.24
73894;BMP280;62699;50.534;12.784;2022-08-21T12:19:39;96470.94;;;26.84
73894;BMP280;62699;50.534;12.784;2022-08-21T12:25:05;96463.59;;;27.13
73894;BMP280;62699;50.534;12.784;2022-08-21T12:30:42;96463.31;;;26.34
73894;BMP280;62699;50.534;12.784;2022-08-21T12:36:15;96459.06;;;26.81
73894;BMP280;62699;50.534;12.784;2022-08-21T12:47:32;96459.09;;;28.13
73894;BMP280;62699;50.534;12.784;2022-08-21T12:53:12;96438.84;;;26.65
73894;BMP280;62699;50.534;12.784;2022-08-21T12:59:03;96446.81;;;25.76
73894;BMP280;62699;50.534;12.784;2022-08-21T13:04:36;96444.88;;;27.78
73894;BMP280;62699;50.534;12.784;2022-08-21T13:16:27;96447.81;;;27.95
73894;BMP280;62699;50.534;12.784;2022-08-21T13:22:00;96445.00;;;30.06
73894;BMP280;62699;50.534;12.784;2022-08-21T13:27:27;96448.91;;;26.72
73894;BMP280;62699;50.534;12.784;2022-08-21T13:33:03;96443.38;;;27.50
73894;BMP280;62699;50.534;12.784;2022-08-21T13:38:30;96445.00;;;26.03
73894;BMP280;62699;50.534;12.784;2022-08-21T13:49:28;96442.91;;;28.80
73894;BMP280;62699;50.534;12.784;2022-08-21T13:54:55;96450.16;;;28.28
73894;BMP280;62699;50.534;12.784;2022-08-21T14:00:17;96443.72;;;27.83
73894;BMP280;62699;50.534;12.784;2022-08-21T14:05:43;96439.91;;;27.90
73894;BMP280;62699;50.534;12.784;2022-08-21T14:11:32;96443.84;;;27.58
73894;BMP280;62699;50.534;12.784;2022-08-21T14:16:56;96436.41;;;29.35
73894;BMP280;62699;50.534;12.784;2022-08-21T14:28:47;96446.66;;;29.31
73894;BMP280;62699;50.534;12.784;2022-08-21T14:34:06;96435.09;;;28.60
73894;BMP280;62699;50.534;12.784;2022-08-21T14:39:25;96430.47;;;28.22
73894;BMP280;62699;50.534;12.784;2022-08-21T14:44:44;96428.97;;;27.12
73894;BMP280;62699;50.534;12.784;2022-08-21T14:50:04;96426.28;;;25.90
73894;BMP280;62699;50.534;12.784;2022-08-21T14:55:24;96431.09;;;25.90
73894;BMP280;62699;50.534;12.784;2022-08-21T15:00:43;96440.44;;;25.73
73894;BMP280;62699;50.534;12.784;2022-08-21T15:06:04;96432.53;;;27.01
73894;BMP280;62699;50.534;12.784;2022-08-21T15:11:36;96439.19;;;26.23
73894;BMP280;62699;50.534;12.784;2022-08-21T15:16:56;96445.97;;;25.73
73894;BMP280;62699;50.534;12.784;2022-08-21T15:22:15;96444.16;;;25.66
73894;BMP280;62699;50.534;12.784;2022-08-21T15:27:35;96434.16;;;26.31
73894;BMP280;62699;50.534;12.784;2022-08-21T15:32:54;96429.91;;;25.47
73894;BMP280;62699;50.534;12.784;2022-08-21T15:38:14;96443.75;;;25.37
73894;BMP280;62699;50.534;12.784;2022-08-21T15:44:08;96439.69;;;25.15
73894;BMP280;62699;50.534;12.784;2022-08-21T15:49:28;96436.34;;;26.21
73894;BMP280;62699;50.534;12.784;2022-08-21T15:54:47;96436.66;;;26.63
73894;BMP280;62699;50.534;12.784;2022-08-21T16:00:23;96437.91;;;25.31
73894;BMP280;62699;50.534;12.784;2022-08-21T16:05:44;96439.97;;;25.54
73894;BMP280;62699;50.534;12.784;2022-08-21T16:11:03;96439.72;;;25.50
73894;BMP280;62699;50.534;12.784;2022-08-21T16:16:45;96433.44;;;26.19
73894;BMP280;62699;50.534;12.784;2022-08-21T16:22:05;96431.44;;;25.96
73894;BMP280;62699;50.534;12.784;2022-08-21T16:27:24;96440.13;;;25.11
73894;BMP280;62699;50.534;12.784;2022-08-21T16:32:44;96434.38;;;24.53
73894;BMP280;62699;50.534;12.784;2022-08-21T16:38:04;96430.69;;;24.82
73894;BMP280;62699;50.534;12.784;2022-08-21T16:43:25;96420.63;;;24.32
73894;BMP280;62699;50.534;12.784;2022-08-21T16:48:44;96418.59;;;23.81
73894;BMP280;62699;50.534;12.784;2022-08-21T16:54:04;96417.47;;;24.47
73894;BMP280;62699;50.534;12.784;2022-08-21T16:59:23;96411.44;;;24.39
73894;BMP280;62699;50.534;12.784;2022-08-21T17:05:01;96416.72;;;24.35
73894;BMP280;62699;50.534;12.784;2022-08-21T17:10:20;96413.50;;;24.39
73894;BMP280;62699;50.534;12.784;2022-08-21T17:15:39;96428.69;;;24.40
73894;BMP280;62699;50.534;12.784;2022-08-21T17:21:14;96429.91;;;24.06
73894;BMP280;62699;50.534;12.784;2022-08-21T17:26:35;96424.53;;;24.08
73894;BMP280;62699;50.534;12.784;2022-08-21T17:31:55;96426.28;;;24.13
73894;BMP280;62699;50.534;12.784;2022-08-21T17:37:53;96423.94;;;23.88
73894;BMP280;62699;50.534;12.784;2022-08-21T17:43:13;96423.88;;;23.58
73894;BMP280;62699;50.534;12.784;2022-08-21T17:48:33;96425.56;;;23.41
73894;BMP280;62699;50.534;12.784;2022-08-21T17:54:19;96429.81;;;23.04
73894;BMP280;62699;50.534;12.784;2022-08-21T17:59:38;96430.81;;;23.09
73894;BMP280;62699;50.534;12.784;2022-08-21T18:04:57;96439.50;;;22.86
73894;BMP280;62699;50.534;12.784;2022-08-21T18:10:16;96442.34;;;22.50
73894;BMP280;62699;50.534;12.784;2022-08-21T18:15:35;96446.47;;;22.12
73894;BMP280;62699;50.534;12.784;2022-08-21T18:20:55;96454.16;;;21.87
73894;BMP280;62699;50.534;12.784;2022-08-21T18:26:26;96455.09;;;21.72
73894;BMP280;62699;50.534;12.784;2022-08-21T18:31:46;96458.25;;;21.25
73894;BMP280;62699;50.534;12.784;2022-08-21T18:37:08;96467.50;;;21.47
73894;BMP280;62699;50.534;12.784;2022-08-21T18:42:47;96469.91;;;21.43
73894;BMP280;62699;50.534;12.784;2022-08-21T18:48:19;96478.81;;;21.17
73894;BMP280;62699;50.534;12.784;2022-08-21T18:53:39;96485.16;;;21.02
73894;BMP280;62699;50.534;12.784;2022-08-21T18:58:58;96491.63;;;20.55
73894;BMP280;62699;50.534;12.784;2022-08-21T19:04:24;96490.00;;;20.94
73894;BMP280;62699;50.534;12.784;2022-08-21T19:09:43;96498.59;;;20.73
73894;BMP280;62699;50.534;12.784;2022-08-21T19:15:06;96495.50;;;20.52
73894;BMP280;62699;50.534;12.784;2022-08-21T19:20:34;96504.31;;;20.43
73894;BMP280;62699;50.534;12.784;2022-08-21T19:25:56;96508.16;;;19.83
73894;BMP280;62699;50.534;12.784;2022-08-21T19:31:28;96514.94;;;19.74
73894;BMP280;62699;50.534;12.784;2022-08-21T19:36:49;96514.25;;;19.66
73894;BMP280;62699;50.534;12.784;2022-08-21T19:42:08;96513.34;;;19.09
73894;BMP280;62699;50.534;12.784;2022-08-21T19:47:28;96510.44;;;18.99
73894;BMP280;62699;50.534;12.784;2022-08-21T19:52:48;96512.47;;;18.99
73894;BMP280;62699;50.534;12.784;2022-08-21T20:03:41;96521.03;;;18.80
73894;BMP280;62699;50.534;12.784;2022-08-21T20:09:14;96520.47;;;18.81
73894;BMP280;62699;50.534;12.784;2022-08-21T20:14:44;96517.03;;;18.43
73894;BMP280;62699;50.534;12.784;2022-08-21T20:20:05;96516.09;;;17.74
73894;BMP280;62699;50.534;12.784;2022-08-21T20:25:25;96513.59;;;17.76
73894;BMP280;62699;50.534;12.784;2022-08-21T20:30:45;96505.41;;;17.33
73894;BMP280;62699;50.534;12.784;2022-08-21T20:36:04;96500.59;;;17.54
73894;BMP280;62699;50.534;12.784;2022-08-21T20:41:24;96504.13;;;17.34
73894;BMP280;62699;50.534;12.784;2022-08-21T20:46:43;96499.38;;;17.70
73894;BMP280;62699;50.534;12.784;2022-08-21T20:52:04;96508.75;;;17.54
73894;BMP280;62699;50.534;12.784;2022-08-21T20:58:00;96498.44;;;17.24
73894;BMP280;62699;50.534;12.784;2022-08-21T21:03:31;96502.69;;;17.33
73894;BMP280;62699;50.534;12.784;2022-08-21T21:08:57;96503.00;;;17.73
73894;BMP280;62699;50.534;12.784;2022-08-21T21:14:41;96496.16;;;17.36
73894;BMP280;62699;50.534;12.784;2022-08-21T21:20:06;96501.78;;;17.38
73894;BMP280;62699;50.534;12.784;2022-08-21T21:25:36;96504.25;;;17.64
73894;BMP280;62699;50.534;12.784;2022-08-21T21:30:57;96504.56;;;17.46
73894;BMP280;62699;50.534;12.784;2022-08-21T21:36:35;96508.28;;;17.35
73894;BMP280;62699;50.534;12.784;2022-08-21T21:42:19;96504.91;;;17.42
73894;BMP280;62699;50.534;12.784;2022-08-21T21:48:00;96503.94;;;17.32
73894;BMP280;62699;50.534;12.784;2022-08-21T21:53:51;96501.22;;;17.32
73894;BMP280;62699;50.534;12.784;2022-08-21T22:10:45;96516.16;;;15.67
73894;BMP280;62699;50.534;12.784;2022-08-21T22:16:05;96509.41;;;15.74
73894;BMP280;62699;50.534;12.784;2022-08-21T22:21:29;96513.66;;;15.69
73894;BMP280;62699;50.534;12.784;2022-08-21T22:26:51;96508.88;;;15.36
73894;BMP280;62699;50.534;12.784;2022-08-21T22:37:50;96513.63;;;15.96
73894;BMP280;62699;50.534;12.784;2022-08-21T22:43:17;96514.28;;;15.89
73894;BMP280;62699;50.534;12.784;2022-08-21T22:48:40;96513.22;;;16.25
73894;BMP280;62699;50.534;12.784;2022-08-21T22:54:12;96514.53;;;16.45
73894;BMP280;62699;50.534;12.784;2022-08-21T22:59:35;96514.16;;;16.28
73894;BMP280;62699;50.534;12.784;2022-08-21T23:05:02;96513.03;;;16.23
73894;BMP280;62699;50.534;12.784;2022-08-21T23:10:37;96517.13;;;16.38
73894;BMP280;62699;50.534;12.784;2022-08-21T23:45:07;96517.13;;;15.83
73894;BMP280;62699;50.534;12.784;2022-08-21T23:50:59;96513.88;;;15.58
